createdAt,value
2022-09-12T00:02:15.356Z,93.50
2022-09-12T00:04:42.173Z,93.60
2022-09-12T00:07:08.771Z,93.60
2022-09-12T00:09:35.472Z,93.60
2022-09-12T00:12:02.369Z,93.60
2022-09-12T00:14:29.134Z,93.70
2022-09-12T00:16:59.388Z,93.60
2022-09-12T00:19:27.621Z,93.50
2022-09-12T00:21:54.778Z,93.60
2022-09-12T00:24:21.719Z,93.70
2022-09-12T00:26:48.644Z,93.90
2022-09-12T00:29:20.215Z,94.10
2022-09-12T00:31:47.704Z,94.80
2022-09-12T00:34:14.530Z,94.20
2022-09-12T00:36:41.346Z,94.20
2022-09-12T00:39:09.044Z,94.40
2022-09-12T00:41:38.939Z,94.40
2022-09-12T00:44:24.176Z,94.40
2022-09-12T00:47:04.726Z,94.40
2022-09-12T00:49:44.323Z,94.40
2022-09-12T00:52:20.853Z,94.30
2022-09-12T00:54:53.855Z,94.40
2022-09-12T00:57:23.522Z,94.40
2022-09-12T01:00:01.195Z,94.20
2022-09-12T01:02:28.278Z,94.30
2022-09-12T01:04:55.739Z,94.40
2022-09-12T01:07:22.476Z,94.50
2022-09-12T01:09:49.544Z,94.40
2022-09-12T01:12:17.362Z,94.40
2022-09-12T01:14:43.952Z,94.40
2022-09-12T01:17:15.419Z,94.60
2022-09-12T01:20:05.941Z,94.70
2022-09-12T01:23:03.448Z,94.90
2022-09-12T01:25:35.826Z,95.00
2022-09-12T01:28:08.475Z,95.00
2022-09-12T01:30:53.993Z,95.10
2022-09-12T01:34:06.699Z,95.20
2022-09-12T01:36:53.834Z,95.20
2022-09-12T01:39:40.685Z,95.20
2022-09-12T01:42:42.168Z,95.10
2022-09-12T01:45:35.160Z,95.10
2022-09-12T01:48:15.629Z,95.00
2022-09-12T01:51:04.740Z,94.90
2022-09-12T01:53:48.706Z,94.60
2022-09-12T01:56:28.569Z,94.60
2022-09-12T01:59:01.481Z,95.30
2022-09-12T02:01:32.057Z,94.70
2022-09-12T02:04:03.454Z,94.80
2022-09-12T02:06:37.315Z,94.70
2022-09-12T02:09:10.423Z,94.90
2022-09-12T02:11:42.723Z,94.70
2022-09-12T02:14:22.379Z,94.80
2022-09-12T02:17:18.004Z,94.70
2022-09-12T02:19:49.178Z,94.70
2022-09-12T02:22:19.796Z,94.80
2022-09-12T02:24:50.594Z,95.50
2022-09-12T02:27:41.009Z,95.00
2022-09-12T02:30:08.890Z,96.00
2022-09-12T02:32:54.343Z,95.50
2022-09-12T02:35:31.133Z,95.60
2022-09-12T02:38:07.512Z,95.80
2022-09-12T02:40:35.811Z,95.90
2022-09-12T02:43:04.983Z,95.90
2022-09-12T02:45:34.295Z,96.10
2022-09-12T02:48:13.666Z,96.40
2022-09-12T02:50:41.079Z,96.60
2022-09-12T02:53:09.207Z,96.50
2022-09-12T02:55:38.616Z,96.60
2022-09-12T02:58:09.686Z,97.00
2022-09-12T03:00:48.457Z,97.10
2022-09-12T03:03:26.823Z,97.10
2022-09-12T03:06:00.165Z,97.40
2022-09-12T03:08:42.891Z,97.40
2022-09-12T03:11:36.045Z,98.40
2022-09-12T03:14:31.650Z,98.00
2022-09-12T03:17:16.990Z,98.40
2022-09-12T03:20:21.830Z,98.60
2022-09-12T03:22:53.813Z,98.50
2022-09-12T03:25:27.894Z,98.60
2022-09-12T03:28:11.699Z,98.60
2022-09-12T03:30:46.382Z,98.70
2022-09-12T03:33:16.039Z,98.90
2022-09-12T03:35:43.666Z,99.00
2022-09-12T03:38:10.449Z,99.10
2022-09-12T03:40:38.477Z,99.00
2022-09-12T03:43:06.591Z,99.20
2022-09-12T03:45:33.441Z,99.30
2022-09-12T03:48:00.183Z,99.50
2022-09-12T03:50:26.850Z,99.60
2022-09-12T03:52:53.536Z,99.70
2022-09-12T03:55:20.307Z,99.80
2022-09-12T03:57:46.883Z,99.90
2022-09-12T04:00:19.067Z,99.90
2022-09-12T04:02:46.456Z,99.90
2022-09-12T04:05:13.155Z,99.90
2022-09-12T04:07:39.797Z,99.90
2022-09-12T04:10:07.074Z,99.90
2022-09-12T04:12:35.461Z,99.90
2022-09-12T04:15:02.259Z,99.90
2022-09-12T04:17:28.841Z,99.90
2022-09-12T04:19:55.461Z,99.90
2022-09-12T04:22:22.162Z,99.90
2022-09-12T04:24:48.746Z,99.90
2022-09-12T04:27:15.351Z,99.90
2022-09-12T04:29:42.011Z,99.90
2022-09-12T04:32:08.612Z,99.90
2022-09-12T04:34:35.440Z,99.90
2022-09-12T04:37:02.009Z,99.90
2022-09-12T04:39:28.654Z,99.90
2022-09-12T04:41:55.255Z,99.90
2022-09-12T04:44:22.022Z,99.90
2022-09-12T04:46:48.883Z,99.90
2022-09-12T04:49:19.434Z,99.90
2022-09-12T04:51:46.837Z,99.90
2022-09-12T04:54:19.052Z,99.90
2022-09-12T04:56:48.895Z,99.90
2022-09-12T04:59:17.006Z,99.90
2022-09-12T05:01:43.903Z,99.90
2022-09-12T05:04:12.947Z,99.90
2022-09-12T05:06:41.319Z,99.90
2022-09-12T05:09:11.292Z,99.90
2022-09-12T05:12:03.360Z,99.90
2022-09-12T05:14:27.665Z,99.90
2022-09-12T05:16:56.390Z,99.90
2022-09-12T05:19:23.518Z,99.90
2022-09-12T05:21:50.242Z,99.90
2022-09-12T05:24:16.962Z,99.90
2022-09-12T05:26:43.867Z,99.90
2022-09-12T05:29:10.463Z,99.90
2022-09-12T05:31:37.694Z,99.90
2022-09-12T05:34:10.050Z,99.90
2022-09-12T05:36:37.128Z,99.90
2022-09-12T05:39:04.609Z,99.90
2022-09-12T05:41:32.877Z,99.90
2022-09-12T05:44:10.846Z,99.90
2022-09-12T05:46:43.677Z,99.90
2022-09-12T05:49:12.675Z,99.90
2022-09-12T05:51:43.841Z,99.90
2022-09-12T05:54:13.219Z,99.90
2022-09-12T05:56:42.483Z,99.90
2022-09-12T05:59:18.262Z,99.90
2022-09-12T06:01:45.416Z,99.90
2022-09-12T06:04:12.204Z,99.90
2022-09-12T06:06:41.793Z,99.90
2022-09-12T06:09:09.488Z,99.90
2022-09-12T06:11:37.904Z,99.90
2022-09-12T06:14:05.165Z,99.90
2022-09-12T06:16:33.852Z,99.90
2022-09-12T06:19:03.368Z,99.90
2022-09-12T06:21:35.151Z,99.90
2022-09-12T06:24:02.478Z,99.90
2022-09-12T06:26:29.686Z,99.90
2022-09-12T06:28:59.227Z,99.90
2022-09-12T06:31:29.303Z,99.90
2022-09-12T06:33:57.325Z,99.90
2022-09-12T06:36:26.921Z,99.90
2022-09-12T06:39:20.806Z,99.90
2022-09-12T06:41:48.823Z,99.90
2022-09-12T06:44:20.897Z,99.90
2022-09-12T06:46:47.988Z,99.90
2022-09-12T06:49:17.482Z,99.90
2022-09-12T06:51:44.437Z,99.90
2022-09-12T06:54:13.931Z,99.90
2022-09-12T06:56:40.736Z,99.90
2022-09-12T06:59:07.388Z,99.90
2022-09-12T07:01:34.344Z,99.90
2022-09-12T07:04:03.840Z,99.90
2022-09-12T07:06:36.236Z,99.90
2022-09-12T07:09:03.855Z,99.90
2022-09-12T07:11:33.352Z,99.90
2022-09-12T07:14:01.809Z,99.90
2022-09-12T07:16:29.210Z,99.90
2022-09-12T07:18:58.220Z,99.90
2022-09-12T07:21:25.127Z,99.90
2022-09-12T07:23:51.941Z,99.90
2022-09-12T07:26:19.001Z,99.90
2022-09-12T07:28:45.663Z,99.90
2022-09-12T07:31:15.440Z,99.90
2022-09-12T07:33:43.266Z,99.90
2022-09-12T07:36:18.080Z,99.90
2022-09-12T07:38:45.102Z,99.90
2022-09-12T07:41:19.503Z,99.90
2022-09-12T07:43:46.274Z,99.90
2022-09-12T07:46:14.328Z,99.90
2022-09-12T07:48:41.342Z,99.90
2022-09-12T07:51:09.978Z,99.90
2022-09-12T07:53:39.036Z,99.90
2022-09-12T07:56:07.207Z,99.90
2022-09-12T07:58:36.355Z,99.90
2022-09-12T08:01:14.831Z,99.90
2022-09-12T08:03:43.110Z,99.90
2022-09-12T08:06:21.097Z,99.90
2022-09-12T08:08:48.755Z,99.20
2022-09-12T08:11:18.147Z,98.80
2022-09-12T08:13:45.616Z,99.60
2022-09-12T08:16:14.823Z,98.90
2022-09-12T08:18:41.872Z,97.20
2022-09-12T08:21:14.318Z,96.90
2022-09-12T08:23:42.412Z,97.60
2022-09-12T08:26:10.635Z,97.40
2022-09-12T08:28:39.968Z,96.60
2022-09-12T08:31:14.141Z,95.20
2022-09-12T08:33:41.102Z,94.60
2022-09-12T08:36:12.140Z,92.50
2022-09-12T08:38:41.672Z,89.20
2022-09-12T08:41:21.618Z,89.40
2022-09-12T08:43:56.755Z,88.60
2022-09-12T08:46:34.768Z,83.30
2022-09-12T08:49:04.175Z,83.10
2022-09-12T08:51:34.567Z,82.60
2022-09-12T08:54:03.069Z,82.00
2022-09-12T08:56:36.072Z,79.80
2022-09-12T08:59:03.409Z,78.10
2022-09-12T09:01:38.387Z,77.30
2022-09-12T09:04:42.176Z,72.80
2022-09-12T09:07:25.897Z,71.00
2022-09-12T09:10:20.608Z,70.00
2022-09-12T09:13:13.598Z,70.60
2022-09-12T09:16:08.557Z,68.20
2022-09-12T09:18:36.696Z,68.50
2022-09-12T09:21:11.855Z,67.90
2022-09-12T09:23:46.337Z,65.60
2022-09-12T09:26:26.619Z,66.10
2022-09-12T09:29:01.092Z,64.70
2022-09-12T09:31:37.444Z,65.70
2022-09-12T09:34:14.323Z,66.00
2022-09-12T09:36:53.404Z,64.10
2022-09-12T09:39:57.949Z,64.40
2022-09-12T09:42:58.472Z,62.10
2022-09-12T09:45:29.119Z,63.20
2022-09-12T09:48:12.336Z,63.90
2022-09-12T09:50:39.121Z,65.40
2022-09-12T09:53:14.894Z,66.80
2022-09-12T09:55:44.552Z,67.00
2022-09-12T09:58:11.262Z,65.80
2022-09-12T10:00:39.024Z,67.60
2022-09-12T10:03:14.844Z,66.90
2022-09-12T10:05:49.936Z,67.00
2022-09-12T10:08:24.549Z,64.20
2022-09-12T10:11:01.859Z,63.20
2022-09-12T10:13:40.609Z,60.50
2022-09-12T10:16:19.506Z,60.80
2022-09-12T10:18:46.428Z,56.10
2022-09-12T10:21:20.625Z,54.30
2022-09-12T10:23:50.892Z,56.40
2022-09-12T10:26:21.683Z,57.20
2022-09-12T10:28:54.916Z,51.90
2022-09-12T10:31:36.126Z,52.30
2022-09-12T10:34:02.820Z,53.30
2022-09-12T10:36:38.030Z,55.30
2022-09-12T10:39:05.795Z,51.70
2022-09-12T10:41:41.340Z,53.90
2022-09-12T10:44:14.796Z,49.20
2022-09-12T10:46:41.376Z,48.40
2022-09-12T10:49:21.481Z,44.60
2022-09-12T10:51:48.844Z,47.20
2022-09-12T10:54:18.799Z,48.20
2022-09-12T10:57:23.319Z,41.80
2022-09-12T11:00:17.768Z,41.10
2022-09-12T11:03:24.749Z,42.30
2022-09-12T11:06:01.761Z,44.30
2022-09-12T11:08:38.645Z,42.00
2022-09-12T11:11:29.518Z,42.50
2022-09-12T11:14:25.454Z,42.20
2022-09-12T11:17:00.951Z,41.00
2022-09-12T11:20:00.382Z,42.10
2022-09-12T11:22:52.850Z,43.60
2022-09-12T11:25:28.946Z,45.10
2022-09-12T11:28:02.991Z,41.70
2022-09-12T11:30:43.512Z,43.40
2022-09-12T11:33:42.844Z,45.00
2022-09-12T11:36:40.663Z,42.70
2022-09-12T11:39:07.240Z,42.10
2022-09-12T11:41:38.193Z,43.50
2022-09-12T11:44:14.221Z,46.80
2022-09-12T11:46:43.403Z,44.10
2022-09-12T11:49:13.410Z,42.70
2022-09-12T11:51:58.702Z,43.50
2022-09-12T11:54:35.387Z,43.30
2022-09-12T11:57:14.102Z,41.10
2022-09-12T11:59:50.030Z,42.10
2022-09-12T12:02:43.434Z,40.30
2022-09-12T12:05:20.336Z,39.00
2022-09-12T12:07:58.421Z,39.10
2022-09-12T12:10:41.533Z,41.10
2022-09-12T12:13:16.314Z,41.00
2022-09-12T12:15:49.742Z,36.20
2022-09-12T12:18:23.974Z,39.40
2022-09-12T12:20:51.840Z,37.50
2022-09-12T12:23:34.289Z,36.30
2022-09-12T12:26:03.124Z,36.90
2022-09-12T12:28:41.783Z,36.50
2022-09-12T12:31:10.476Z,37.20
2022-09-12T12:33:39.947Z,36.00
2022-09-12T12:36:10.339Z,36.00
2022-09-12T12:38:39.011Z,35.20
2022-09-12T12:41:17.611Z,35.20
2022-09-12T12:43:46.156Z,32.70
2022-09-12T12:46:15.644Z,35.00
2022-09-12T12:48:56.690Z,32.80
2022-09-12T12:51:48.503Z,32.00
2022-09-12T12:54:29.118Z,32.90
2022-09-12T12:57:04.958Z,33.50
2022-09-12T12:59:32.185Z,34.70
2022-09-12T13:01:59.966Z,33.70
2022-09-12T13:04:30.029Z,33.10
2022-09-12T13:07:08.246Z,33.40
2022-09-12T13:09:45.980Z,33.10
2022-09-12T13:12:28.274Z,33.60
2022-09-12T13:14:58.320Z,34.80
2022-09-12T13:17:33.200Z,33.50
2022-09-12T13:20:28.252Z,32.00
2022-09-12T13:22:55.604Z,30.70
2022-09-12T13:25:33.132Z,32.90
2022-09-12T13:28:02.748Z,31.70
2022-09-12T13:30:35.517Z,30.30
2022-09-12T13:33:29.102Z,30.30
2022-09-12T13:36:04.658Z,31.90
2022-09-12T13:38:39.569Z,32.50
2022-09-12T13:41:27.289Z,28.70
2022-09-12T13:43:54.190Z,30.10
2022-09-12T13:46:30.684Z,30.50
2022-09-12T13:48:59.963Z,28.70
2022-09-12T13:51:29.467Z,32.10
2022-09-12T13:54:00.119Z,30.60
2022-09-12T13:56:27.088Z,29.20
2022-09-12T13:58:56.913Z,30.60
2022-09-12T14:01:36.507Z,30.70
2022-09-12T14:04:39.889Z,30.20
2022-09-12T14:07:18.833Z,29.70
2022-09-12T14:09:52.503Z,30.70
2022-09-12T14:12:28.479Z,28.50
2022-09-12T14:14:55.326Z,29.10
2022-09-12T14:17:32.766Z,28.50
2022-09-12T14:20:03.712Z,29.10
2022-09-12T14:22:31.214Z,28.40
2022-09-12T14:24:59.746Z,29.10
2022-09-12T14:27:43.059Z,29.00
2022-09-12T14:30:34.653Z,29.30
2022-09-12T14:33:10.407Z,29.60
2022-09-12T14:35:51.568Z,29.70
2022-09-12T14:38:24.702Z,31.10
2022-09-12T14:40:59.819Z,29.10
2022-09-12T14:43:35.016Z,30.00
2022-09-12T14:46:15.292Z,28.80
2022-09-12T14:48:53.242Z,29.80
2022-09-12T14:51:36.884Z,30.50
2022-09-12T14:54:03.699Z,30.70
2022-09-12T14:56:52.976Z,28.10
2022-09-12T14:59:39.000Z,26.60
2022-09-12T15:02:20.524Z,28.40
2022-09-12T15:05:03.801Z,27.40
2022-09-12T15:07:34.913Z,26.20
2022-09-12T15:10:16.982Z,25.80
2022-09-12T15:12:43.671Z,24.90
2022-09-12T15:15:16.394Z,23.90
2022-09-12T15:17:43.564Z,23.80
2022-09-12T15:20:11.725Z,24.00
2022-09-12T15:22:39.515Z,25.10
2022-09-12T15:25:06.736Z,25.60
2022-09-12T15:27:33.432Z,26.70
2022-09-12T15:30:00.228Z,28.10
2022-09-12T15:32:31.221Z,27.90
2022-09-12T15:34:57.899Z,29.20
2022-09-12T15:37:25.374Z,28.70
2022-09-12T15:39:52.091Z,27.70
2022-09-12T15:42:27.754Z,29.20
2022-09-12T15:44:54.933Z,29.80
2022-09-12T15:47:23.069Z,30.00
2022-09-12T15:49:50.394Z,29.20
2022-09-12T15:52:17.192Z,28.70
2022-09-12T15:54:43.975Z,28.70
2022-09-12T15:57:10.790Z,28.00
2022-09-12T15:59:37.640Z,29.80
2022-09-12T16:02:04.459Z,30.60
2022-09-12T16:04:31.572Z,29.70
2022-09-12T16:06:58.482Z,29.70
2022-09-12T16:09:25.235Z,30.10
2022-09-12T16:11:52.275Z,31.30
2022-09-12T16:14:19.797Z,33.00
2022-09-12T16:16:53.788Z,31.30
2022-09-12T16:19:20.900Z,30.90
2022-09-12T16:21:47.729Z,30.80
2022-09-12T16:24:14.356Z,32.20
2022-09-12T16:26:40.979Z,31.80
2022-09-12T16:29:08.921Z,31.70
2022-09-12T16:31:38.235Z,32.20
2022-09-12T16:34:04.941Z,32.60
2022-09-12T16:36:31.525Z,32.90
2022-09-12T16:38:58.137Z,33.80
2022-09-12T16:41:25.443Z,34.00
2022-09-12T16:43:52.403Z,35.20
2022-09-12T16:46:30.142Z,36.30
2022-09-12T16:48:58.426Z,36.40
2022-09-12T16:51:35.227Z,36.60
2022-09-12T16:54:02.145Z,35.20
2022-09-12T16:56:28.787Z,36.40
2022-09-12T16:58:55.561Z,37.80
2022-09-12T17:01:26.312Z,39.10
2022-09-12T17:03:54.617Z,40.60
2022-09-12T17:06:21.844Z,41.00
2022-09-12T17:08:50.285Z,41.70
2022-09-12T17:11:25.161Z,42.70
2022-09-12T17:14:04.557Z,44.10
2022-09-12T17:16:34.584Z,45.20
2022-09-12T17:19:01.258Z,45.90
2022-09-12T17:21:27.903Z,45.50
2022-09-12T17:23:54.872Z,46.40
2022-09-12T17:26:21.560Z,48.00
2022-09-12T17:28:48.358Z,48.50
2022-09-12T17:31:15.611Z,48.70
2022-09-12T17:33:42.759Z,50.10
2022-09-12T17:36:15.364Z,50.40
2022-09-12T17:38:43.520Z,50.90
2022-09-12T17:41:17.348Z,51.60
2022-09-12T17:43:45.963Z,52.30
2022-09-12T17:46:13.228Z,53.00
2022-09-12T17:48:39.878Z,53.80
2022-09-12T17:51:12.024Z,54.60
2022-09-12T17:53:39.273Z,54.90
2022-09-12T17:56:06.919Z,55.70
2022-09-12T17:58:34.160Z,56.30
2022-09-12T18:01:30.494Z,56.60
2022-09-12T18:04:00.605Z,57.10
2022-09-12T18:06:28.979Z,57.80
2022-09-12T18:08:55.971Z,58.00
2022-09-12T18:11:22.652Z,58.60
2022-09-12T18:13:49.546Z,59.10
2022-09-12T18:16:17.176Z,59.70
2022-09-12T18:18:43.951Z,61.50
2022-09-12T18:21:11.475Z,61.00
2022-09-12T18:23:38.480Z,61.20
2022-09-12T18:26:10.662Z,61.50
2022-09-12T18:28:42.724Z,62.00
2022-09-12T18:31:11.510Z,62.70
2022-09-12T18:33:38.163Z,63.20
2022-09-12T18:36:06.287Z,63.80
2022-09-12T18:38:33.229Z,64.20
2022-09-12T18:41:26.844Z,65.00
2022-09-12T18:43:55.409Z,65.70
2022-09-12T18:46:22.272Z,66.20
2022-09-12T18:48:49.026Z,66.90
2022-09-12T18:51:20.934Z,67.50
2022-09-12T18:53:56.275Z,68.00
2022-09-12T18:56:27.794Z,68.30
2022-09-12T18:58:56.577Z,68.70
2022-09-12T19:01:25.479Z,69.30
2022-09-12T19:03:53.177Z,69.50
2022-09-12T19:06:28.304Z,70.00
2022-09-12T19:08:56.392Z,70.00
2022-09-12T19:11:24.016Z,70.30
2022-09-12T19:13:53.095Z,70.30
2022-09-12T19:16:22.583Z,70.60
2022-09-12T19:18:50.325Z,70.80
2022-09-12T19:21:19.696Z,71.20
2022-09-12T19:23:46.407Z,71.80
2022-09-12T19:26:14.967Z,72.30
2022-09-12T19:28:42.242Z,73.40
2022-09-12T19:31:11.342Z,74.60
2022-09-12T19:33:38.739Z,75.00
2022-09-12T19:36:22.270Z,75.10
2022-09-12T19:38:55.869Z,75.50
2022-09-12T19:41:22.966Z,75.90
2022-09-12T19:43:49.839Z,76.20
2022-09-12T19:46:18.564Z,76.50
2022-09-12T19:48:45.711Z,76.70
2022-09-12T19:51:12.598Z,76.90
2022-09-12T19:53:39.595Z,77.20
2022-09-12T19:56:07.665Z,77.30
2022-09-12T19:58:38.028Z,77.50
2022-09-12T20:01:14.164Z,77.80
2022-09-12T20:03:41.735Z,78.10
2022-09-12T20:06:16.541Z,78.20
2022-09-12T20:08:44.064Z,78.60
2022-09-12T20:11:13.019Z,78.50
2022-09-12T20:13:40.097Z,78.90
2022-09-12T20:16:15.760Z,79.20
2022-09-12T20:18:46.597Z,79.70
2022-09-12T20:21:18.750Z,79.90
2022-09-12T20:23:46.339Z,80.00
2022-09-12T20:26:13.659Z,80.10
2022-09-12T20:28:41.289Z,80.30
2022-09-12T20:31:12.707Z,80.40
2022-09-12T20:33:40.060Z,80.60
2022-09-12T20:36:13.495Z,81.00
2022-09-12T20:38:41.171Z,81.10
2022-09-12T20:41:09.943Z,81.40
2022-09-12T20:43:38.518Z,81.50
2022-09-12T20:46:06.515Z,81.50
2022-09-12T20:48:33.203Z,81.60
2022-09-12T20:50:59.944Z,82.40
2022-09-12T20:53:29.637Z,82.50
2022-09-12T20:55:58.296Z,83.10
2022-09-12T20:58:25.049Z,83.20
2022-09-12T21:00:51.894Z,83.20
2022-09-12T21:03:19.067Z,84.80
2022-09-12T21:05:46.750Z,84.80
2022-09-12T21:08:14.241Z,84.60
2022-09-12T21:10:42.052Z,84.90
2022-09-12T21:13:12.911Z,85.00
2022-09-12T21:15:40.637Z,85.40
2022-09-12T21:18:07.335Z,86.20
2022-09-12T21:20:34.344Z,85.50
2022-09-12T21:23:00.960Z,85.60
2022-09-12T21:25:29.033Z,85.80
2022-09-12T21:27:55.666Z,86.10
2022-09-12T21:30:22.443Z,86.10
2022-09-12T21:32:49.130Z,86.00
2022-09-12T21:35:15.853Z,86.20
2022-09-12T21:37:42.452Z,86.00
2022-09-12T21:40:09.456Z,86.40
2022-09-12T21:42:36.039Z,86.50
2022-09-12T21:45:02.646Z,86.80
2022-09-12T21:47:29.325Z,87.00
2022-09-12T21:49:56.006Z,87.30
2022-09-12T21:52:22.665Z,87.30
2022-09-12T21:54:49.348Z,87.50
2022-09-12T21:57:16.012Z,87.50
2022-09-12T21:59:42.700Z,87.70
2022-09-12T22:02:10.160Z,87.50
2022-09-12T22:04:36.791Z,87.40
2022-09-12T22:07:03.492Z,87.60
2022-09-12T22:09:30.172Z,87.70
2022-09-12T22:11:56.772Z,88.10
2022-09-12T22:14:23.485Z,88.20
2022-09-12T22:16:50.075Z,88.30
2022-09-12T22:19:16.728Z,88.50
2022-09-12T22:22:03.297Z,88.70
2022-09-12T22:24:30.163Z,88.90
2022-09-12T22:26:59.062Z,88.90
2022-09-12T22:29:26.633Z,89.20
2022-09-12T22:31:53.722Z,89.30
2022-09-12T22:34:20.439Z,89.60
2022-09-12T22:36:50.213Z,89.30
2022-09-12T22:39:16.886Z,89.60
2022-09-12T22:41:43.674Z,89.60
2022-09-12T22:44:11.071Z,89.40
2022-09-12T22:46:38.488Z,89.60
2022-09-12T22:49:06.699Z,89.80
2022-09-12T22:51:34.101Z,90.00
2022-09-12T22:54:00.773Z,90.10
2022-09-12T22:56:27.609Z,90.60
2022-09-12T22:58:54.415Z,91.00
2022-09-12T23:01:21.408Z,92.60
2022-09-12T23:03:48.206Z,92.60
2022-09-12T23:06:14.922Z,92.80
2022-09-12T23:08:41.599Z,92.40
2022-09-12T23:11:13.709Z,91.60
2022-09-12T23:13:43.595Z,91.00
2022-09-12T23:16:15.322Z,90.20
2022-09-12T23:18:41.986Z,89.40
2022-09-12T23:21:11.549Z,88.70
2022-09-12T23:23:38.895Z,88.00
2022-09-12T23:26:12.625Z,87.20
2022-09-12T23:28:47.937Z,86.40
2022-09-12T23:31:15.109Z,86.00
2022-09-12T23:33:41.729Z,85.80
2022-09-12T23:36:14.149Z,85.40
2022-09-12T23:38:43.375Z,85.20
2022-09-12T23:41:11.933Z,85.10
2022-09-12T23:43:38.961Z,85.00
2022-09-12T23:46:06.662Z,84.90
2022-09-12T23:48:33.862Z,84.70
2022-09-12T23:51:01.841Z,84.80
2022-09-12T23:53:29.533Z,84.80
2022-09-12T23:55:56.253Z,84.70
2022-09-12T23:58:22.915Z,84.80
